Time;durP1;ratioP1;P1;durP2;ratioP2;P2;SDS_P1;SDS_P2;PMS_P1;PMS_P2;Temp;Humidity;BMP_temperature;BMP_pressure;BME280_temperature;BME280_humidity;BME280_pressure;Samples;Min_cycle;Max_cycle;Signal;HPM_P1;HPM_P2
2023/01/26 00:01:43;;;;;;;3.05;2.50;;;;;;;3.64;80.63;99989.66;4408882;32;34700;-82
2023/01/26 00:04:12;;;;;;;1.83;1.73;;;;;;;3.01;83.06;99986.13;4408826;32;34418;-73
2023/01/26 00:06:40;;;;;;;1.33;1.33;;;;;;;2.65;85.76;99981.59;4408866;32;33518;-79
2023/01/26 00:09:12;;;;;;;4.30;1.55;;;;;;;3.90;79.83;99981.72;4406745;32;33859;-83
2023/01/26 00:11:41;;;;;;;1.50;1.48;;;;;;;3.33;80.94;99981.03;4395376;32;35855;-74
2023/01/26 00:14:08;;;;;;;0.95;0.85;;;;;;;3.30;81.61;99972.38;4408653;32;34473;-82
2023/01/26 00:16:36;;;;;;;4.10;3.03;;;;;;;3.41;80.95;99976.13;4408894;32;33439;-83
2023/01/26 00:19:05;;;;;;;1.80;1.70;;;;;;;3.41;81.10;99978.72;4395261;32;33942;-81
2023/01/26 00:21:33;;;;;;;2.35;1.90;;;;;;;3.57;80.86;99978.28;4408781;32;35921;-82
2023/01/26 00:24:01;;;;;;;1.58;1.48;;;;;;;3.97;77.18;99973.34;4407589;32;35146;-74
2023/01/26 00:26:29;;;;;;;2.20;1.50;;;;;;;2.97;82.13;99976.56;4407607;32;32619;-77
2023/01/26 00:28:59;;;;;;;0.88;0.88;;;;;;;2.99;83.04;99966.34;4395033;32;34704;-81
2023/01/26 00:31:27;;;;;;;1.92;1.83;;;;;;;3.57;80.25;99967.12;4394852;32;35052;-74
2023/01/26 00:33:56;;;;;;;0.98;0.98;;;;;;;3.87;79.39;99967.09;4407601;32;35175;-82
2023/01/26 00:36:24;;;;;;;1.77;1.67;;;;;;;3.19;81.44;99967.81;4407546;32;33331;-82
2023/01/26 00:38:52;;;;;;;1.62;1.48;;;;;;;2.52;85.92;99968.31;4408706;32;33848;-73
2023/01/26 00:44:08;;;;;;;0.70;0.70;;;;;;;3.35;82.58;99965.66;4408698;32;34424;-82
2023/01/26 00:46:37;;;;;;;1.23;1.23;;;;;;;4.17;78.25;99968.72;4408683;32;33567;-82
2023/01/26 00:49:06;;;;;;;1.10;1.05;;;;;;;3.37;80.15;99967.44;4408542;32;34179;-82
2023/01/26 00:51:34;;;;;;;3.97;3.58;;;;;;;3.54;80.28;99960.19;4408439;32;35078;-74
2023/01/26 00:54:03;;;;;;;9.05;3.28;;;;;;;3.28;80.81;99958.59;4407369;32;34387;-73
2023/01/26 00:56:31;;;;;;;2.25;2.15;;;;;;;3.85;78.38;99957.56;4407301;32;34181;-76
2023/01/26 00:58:59;;;;;;;1.20;1.20;;;;;;;3.45;79.77;99954.78;4407278;32;33866;-82
2023/01/26 01:01:28;;;;;;;2.70;2.45;;;;;;;3.38;80.91;99952.88;4407244;32;35162;-82
2023/01/26 01:03:56;;;;;;;0.80;0.80;;;;;;;3.47;80.74;99949.69;4408457;32;35212;-82
2023/01/26 01:06:24;;;;;;;0.75;0.75;;;;;;;2.96;82.81;99958.50;4408277;32;33401;-82
2023/01/26 01:08:52;;;;;;;3.83;1.85;;;;;;;3.25;81.90;99955.91;4408269;32;33952;-73
2023/01/26 01:11:20;;;;;;;2.45;2.25;;;;;;;3.19;81.66;99947.22;4408223;32;35896;-81
2023/01/26 01:13:50;;;;;;;0.82;0.82;;;;;;;3.95;79.35;99950.13;4406947;32;33299;-82
2023/01/26 01:16:19;;;;;;;0.75;0.75;;;;;;;4.16;76.90;99954.06;4407158;32;34385;-83
2023/01/26 01:18:47;;;;;;;0.85;0.85;;;;;;;3.81;78.56;99951.44;4407219;32;34821;-72
2023/01/26 01:21:16;;;;;;;4.12;2.85;;;;;;;3.79;79.24;99947.97;4406818;32;35124;-82
2023/01/26 01:23:44;;;;;;;1.12;1.12;;;;;;;3.61;79.72;99948.34;4407068;32;34283;-77
2023/01/26 01:26:13;;;;;;;1.58;1.40;;;;;;;3.58;79.97;99940.53;4408389;32;34121;-76
2023/01/26 01:28:42;;;;;;;1.15;1.12;;;;;;;3.20;82.57;99941.22;4407234;32;33889;-83
2023/01/26 01:31:15;;;;;;;3.37;2.20;;;;;;;3.48;81.00;99936.84;4406702;32;35207;-82
2023/01/26 01:33:43;;;;;;;1.55;1.42;;;;;;;3.25;81.94;99932.75;4408021;32;35223;-74
2023/01/26 01:36:15;;;;;;;1.67;1.58;;;;;;;3.03;83.87;99932.13;4407953;32;33466;-82
2023/01/26 01:38:44;;;;;;;0.75;0.75;;;;;;;3.61;81.43;99933.75;4407058;32;34012;-73
2023/01/26 01:41:15;;;;;;;0.62;0.62;;;;;;;3.18;82.43;99926.59;4408109;32;35864;-74
2023/01/26 01:43:44;;;;;;;1.55;1.30;;;;;;;4.33;77.80;99926.13;4406822;32;34486;-80
2023/01/26 01:46:34;;;;;;;0.98;0.98;;;;;;;4.31;76.03;99928.66;4407830;32;33532;-82
2023/01/26 01:49:28;;;;;;;3.22;3.03;;;;;;;3.14;82.21;99930.78;4406563;32;33922;-73
2023/01/26 01:52:17;;;;;;;1.00;1.00;;;;;;;3.22;81.59;99924.13;4407663;32;34991;-81
2023/01/26 01:54:51;;;;;;;0.90;0.90;;;;;;;3.71;79.54;99923.72;4407845;32;35049;-82
2023/01/26 01:57:27;;;;;;;1.42;1.35;;;;;;;3.51;80.00;99921.50;4406680;32;33480;-82
2023/01/26 02:00:07;;;;;;;1.12;1.10;;;;;;;3.47;80.27;99924.81;4406620;32;34542;-82
2023/01/26 02:02:40;;;;;;;3.03;2.83;;;;;;;3.00;82.64;99916.59;4406291;32;35090;-76
2023/01/26 02:05:32;;;;;;;0.65;0.65;;;;;;;3.77;78.69;99913.56;4406456;32;35309;-82
2023/01/26 02:08:02;;;;;;;0.77;0.77;;;;;;;4.33;76.51;99905.50;4406591;32;33380;-82
2023/01/26 02:10:31;;;;;;;3.30;2.30;;;;;;;3.63;77.77;99899.47;4406315;32;33924;-82
2023/01/26 02:12:59;;;;;;;2.28;2.05;;;;;;;3.15;80.91;99900.75;4406311;32;35739;-82
2023/01/26 02:15:29;;;;;;;2.28;2.08;;;;;;;2.91;83.67;99893.19;4406326;32;34429;-83
2023/01/26 02:18:00;;;;;;;11.90;5.00;;;;;;;2.99;83.37;99894.31;4406390;32;33459;-82
2023/01/26 02:20:36;;;;;;;0.77;0.77;;;;;;;2.74;84.29;99888.44;4406246;32;34846;-82
2023/01/26 02:23:25;;;;;;;0.75;0.75;;;;;;;3.43;82.16;99892.09;4406202;32;33460;-73
2023/01/26 02:25:56;;;;;;;0.85;0.85;;;;;;;3.76;79.80;99886.09;4406198;32;35139;-73
2023/01/26 02:28:25;;;;;;;2.50;2.33;;;;;;;4.29;76.95;99889.09;4407699;32;32704;-74
2023/01/26 02:30:55;;;;;;;1.40;1.30;;;;;;;4.61;74.93;99875.19;4405966;32;34018;-74
2023/01/26 02:33:25;;;;;;;3.12;1.70;;;;;;;4.56;74.23;99882.81;4407923;32;34326;-75
2023/01/26 02:35:55;;;;;;;1.40;1.30;;;;;;;4.55;74.02;99870.75;4408739;32;34430;-81
2023/01/26 02:38:26;;;;;;;1.55;1.45;;;;;;;4.43;74.14;99865.31;4409343;32;33391;-82
2023/01/26 02:40:56;;;;;;;9.85;1.73;;;;;;;3.98;76.38;99862.56;4408250;32;34589;-81
2023/01/26 02:43:25;;;;;;;1.42;1.20;;;;;;;3.26;79.77;99857.28;4409398;32;34419;-80
2023/01/26 02:45:54;;;;;;;2.47;2.35;;;;;;;2.71;83.70;99865.19;4408219;32;34984;-81
2023/01/26 02:51:09;;;;;;;0.98;0.98;;;;;;;2.72;84.68;99850.63;4408143;32;33191;-81
2023/01/26 02:53:37;;;;;;;0.85;0.85;;;;;;;2.97;83.90;99849.66;4408184;32;34482;-82
2023/01/26 02:56:06;;;;;;;2.40;1.52;;;;;;;3.02;82.96;99848.09;4408413;32;34546;-81
2023/01/26 02:58:34;;;;;;;1.77;1.62;;;;;;;3.30;82.37;99846.25;4408453;32;33271;-81
2023/01/26 03:01:02;;;;;;;1.05;1.05;;;;;;;4.10;78.88;99840.53;4408070;32;33202;-82
2023/01/26 03:03:43;;;;;;;0.98;0.98;;;;;;;3.64;79.33;99835.13;4408064;32;35882;-80
2023/01/26 03:06:14;;;;;;;1.60;1.50;;;;;;;3.32;80.87;99827.47;4408325;32;34445;-77
2023/01/26 03:08:42;;;;;;;1.33;1.30;;;;;;;3.07;82.40;99825.94;4409518;32;33605;-82
2023/01/26 03:11:10;;;;;;;1.27;1.23;;;;;;;2.84;84.25;99826.16;4409413;32;33906;-82
2023/01/26 03:13:39;;;;;;;8.60;6.12;;;;;;;3.03;83.99;99824.09;4409197;32;35914;-82
2023/01/26 03:16:09;;;;;;;2.55;2.35;;;;;;;2.95;83.82;99830.75;4409418;32;34452;-82
2023/01/26 03:29:46;;;;;;;6.55;3.05;;;;;;;2.98;83.06;99807.66;4397873;32;34198;-78
2023/01/26 03:32:14;;;;;;;2.87;2.67;;;;;;;3.41;81.44;99808.81;4407735;32;33249;-79
2023/01/26 03:34:42;;;;;;;3.25;3.00;;;;;;;3.48;80.80;99807.25;4409031;32;35031;-73
2023/01/26 03:37:11;;;;;;;3.58;2.50;;;;;;;3.27;81.74;99803.28;4408149;32;34411;-82
2023/01/26 03:56:33;;;;;;;2.83;2.50;;;;;;;3.35;80.97;99785.47;4408940;32;35166;-82
2023/01/26 03:59:07;;;;;;;2.95;2.75;;;;;;;2.56;84.42;99785.94;4408896;32;35207;-82
2023/01/26 04:01:40;;;;;;;1.23;1.20;;;;;;;2.36;87.16;99777.63;4407916;32;33436;-73
2023/01/26 04:09:44;;;;;;;2.60;1.85;;;;;;;3.64;80.56;99781.06;4409053;32;34484;-74
2023/01/26 04:12:12;;;;;;;0.80;0.80;;;;;;;3.48;81.04;99774.66;4407940;32;33499;-82
2023/01/26 04:23:01;;;;;;;0.80;0.80;;;;;;;3.01;82.80;99770.03;4408828;32;34329;-82
2023/01/26 04:25:29;;;;;;;1.98;1.87;;;;;;;3.18;82.17;99778.19;4409173;32;34717;-82
2023/01/26 04:27:57;;;;;;;0.62;0.62;;;;;;;3.70;80.90;99762.28;4408866;32;35221;-82
2023/01/26 04:30:26;;;;;;;0.98;0.98;;;;;;;3.21;81.76;99770.56;4408615;32;34288;-82
2023/01/26 04:32:54;;;;;;;0.80;0.80;;;;;;;2.63;85.19;99769.00;4409067;32;33419;-74
2023/01/26 04:35:22;;;;;;;1.58;1.55;;;;;;;3.02;84.77;99765.75;4408891;32;33462;-82
2023/01/26 04:37:50;;;;;;;1.90;1.75;;;;;;;3.08;82.81;99763.34;4408940;32;34723;-82
2023/01/26 04:40:19;;;;;;;2.47;2.28;;;;;;;3.17;82.67;99758.44;4409008;32;34427;-82
2023/01/26 04:42:47;;;;;;;4.32;1.70;;;;;;;3.25;82.60;99757.75;4408915;32;34337;-81
2023/01/26 04:45:16;;;;;;;1.35;1.35;;;;;;;3.80;78.92;99757.37;4408592;32;34742;-73
2023/01/26 04:47:44;;;;;;;0.93;0.93;;;;;;;4.42;75.66;99755.31;4408825;32;35120;-74
2023/01/26 04:50:15;;;;;;;1.17;1.17;;;;;;;4.39;74.62;99750.06;4408809;32;35281;-73
2023/01/26 04:52:44;;;;;;;2.08;1.30;;;;;;;3.95;76.49;99749.16;4408810;32;33532;-73
2023/01/26 04:55:13;;;;;;;1.05;1.05;;;;;;;2.92;79.87;99756.06;4407984;32;33921;-82
2023/01/26 04:57:41;;;;;;;0.82;0.82;;;;;;;3.20;79.30;99755.94;4408719;32;35145;-82
2023/01/26 05:00:11;;;;;;;1.80;1.70;;;;;;;3.43;78.66;99747.94;4407514;32;34457;-82
2023/01/26 05:02:40;;;;;;;1.67;1.58;;;;;;;3.31;78.51;99747.63;4408688;32;34217;-82
2023/01/26 05:05:08;;;;;;;2.05;1.95;;;;;;;3.47;77.39;99744.59;4408500;32;33893;-82
2023/01/26 05:07:37;;;;;;;2.35;2.25;;;;;;;3.30;78.33;99754.47;4408574;32;34960;-81
2023/01/26 05:10:05;;;;;;;0.93;0.93;;;;;;;3.32;77.60;99746.78;4407121;32;33283;-74
2023/01/26 05:12:33;;;;;;;2.37;2.20;;;;;;;3.35;77.51;99752.00;4408515;32;34169;-82
2023/01/26 05:15:04;;;;;;;2.72;2.28;;;;;;;3.29;77.23;99750.16;4408594;32;34497;-74
2023/01/26 05:17:35;;;;;;;2.72;1.25;;;;;;;3.66;75.53;99751.06;4408313;32;35032;-81
2023/01/26 05:20:07;;;;;;;4.95;4.53;;;;;;;4.03;74.90;99740.72;4407399;32;33599;-81
2023/01/26 05:22:35;;;;;;;1.15;1.15;;;;;;;3.53;75.88;99742.16;4408478;32;33973;-74
2023/01/26 05:25:05;;;;;;;0.73;0.73;;;;;;;3.36;76.35;99752.03;4395147;32;33869;-73
2023/01/26 05:27:33;;;;;;;0.82;0.80;;;;;;;3.42;76.55;99746.16;4408320;32;35874;-73
2023/01/26 05:30:02;;;;;;;1.08;1.08;;;;;;;3.65;75.97;99745.88;4407255;32;35113;-82
2023/01/26 05:32:30;;;;;;;35.05;1.77;;;;;;;3.68;75.62;99739.06;4406908;32;33369;-83
2023/01/26 05:34:59;;;;;;;0.60;0.60;;;;;;;3.50;76.08;99742.09;4408314;32;34631;-82
2023/01/26 05:37:27;;;;;;;2.33;2.12;;;;;;;4.03;74.21;99741.59;4408203;32;35029;-79
2023/01/26 05:39:56;;;;;;;3.42;3.12;;;;;;;3.75;74.92;99745.25;4408258;32;34292;-81
2023/01/26 05:42:25;;;;;;;0.85;0.85;;;;;;;3.94;74.04;99741.41;4406765;32;33428;-82
2023/01/26 05:44:53;;;;;;;1.90;1.80;;;;;;;3.51;75.68;99740.38;4406783;32;34856;-82
2023/01/26 05:47:21;;;;;;;2.35;2.15;;;;;;;3.63;75.10;99750.13;4406982;32;35145;-73
2023/01/26 05:49:50;;;;;;;0.62;0.62;;;;;;;3.40;76.21;99755.56;4408048;32;34413;-82
2023/01/26 05:52:20;;;;;;;0.68;0.68;;;;;;;2.73;80.53;99752.97;4407001;32;34121;-82
2023/01/26 05:54:49;;;;;;;1.70;1.60;;;;;;;2.60;82.63;99756.91;4406771;32;34637;-84
2023/01/26 05:57:17;;;;;;;0.88;0.88;;;;;;;3.47;79.42;99754.88;4407731;32;35842;-83
2023/01/26 05:59:46;;;;;;;1.30;1.20;;;;;;;3.07;79.30;99759.03;4406817;32;35250;-83
2023/01/26 06:02:14;;;;;;;1.70;1.60;;;;;;;3.19;79.39;99761.94;4408014;32;33107;-74
2023/01/26 06:04:43;;;;;;;0.85;0.85;;;;;;;2.85;80.45;99762.72;4394402;32;33843;-83
2023/01/26 06:07:14;;;;;;;0.68;0.68;;;;;;;3.26;78.69;99760.38;4407042;32;35845;-83
2023/01/26 06:09:42;;;;;;;0.98;0.98;;;;;;;3.10;78.53;99751.38;4409588;32;34997;-83
2023/01/26 06:12:15;;;;;;;1.80;1.70;;;;;;;3.30;77.24;99753.59;4409821;32;34304;-83
2023/01/26 06:14:45;;;;;;;1.10;1.05;;;;;;;3.11;78.00;99752.28;4408776;32;33988;-80
2023/01/26 06:17:16;;;;;;;0.62;0.62;;;;;;;3.34;78.28;99752.84;4408679;32;35048;-79
2023/01/26 06:19:44;;;;;;;1.67;1.55;;;;;;;3.57;76.49;99746.56;4408623;32;35057;-75
2023/01/26 06:22:13;;;;;;;1.85;1.75;;;;;;;3.50;75.90;99749.81;4395816;32;32807;-80
2023/01/26 06:24:43;;;;;;;0.65;0.65;;;;;;;3.79;75.00;99754.78;4408840;32;33142;-85
2023/01/26 06:27:13;;;;;;;1.75;1.65;;;;;;;3.81;74.33;99753.09;4409464;32;35046;-87
2023/01/26 06:29:43;;;;;;;0.80;0.80;;;;;;;3.66;74.59;99755.34;4408737;32;34287;-72
2023/01/26 06:32:12;;;;;;;0.70;0.70;;;;;;;3.38;74.83;99752.09;4407174;32;34191;-89
2023/01/26 06:34:42;;;;;;;1.83;1.25;;;;;;;3.79;74.22;99747.06;4418324;32;34272;-75
2023/01/26 06:37:10;;;;;;;1.25;1.23;;;;;;;3.87;73.69;99750.69;4425066;32;35122;-76
2023/01/26 06:39:40;;;;;;;0.85;0.85;;;;;;;3.40;76.03;99745.28;4421027;32;32993;-78
2023/01/26 06:42:08;;;;;;;1.90;1.80;;;;;;;3.62;75.55;99749.25;4426440;32;32361;-75
2023/01/26 06:44:37;;;;;;;1.12;1.10;;;;;;;3.32;75.97;99744.19;4440179;32;33880;-84
2023/01/26 06:47:06;;;;;;;3.17;1.98;;;;;;;3.44;76.44;99751.38;4439228;32;34989;-83
2023/01/26 06:49:35;;;;;;;0.98;0.98;;;;;;;3.57;74.76;99748.25;4440107;32;34205;-75
2023/01/26 06:52:26;;;;;;;1.58;1.35;;;;;;;3.11;76.87;99745.41;4440463;32;34235;-71
2023/01/26 06:54:57;;;;;;;0.60;0.60;;;;;;;3.34;75.27;99742.56;4440040;32;33842;-72
2023/01/26 06:57:25;;;;;;;0.90;0.90;;;;;;;3.52;74.67;99740.41;4425972;32;35102;-71
2023/01/26 06:59:56;;;;;;;1.05;1.05;;;;;;;3.72;73.66;99737.44;4438220;32;34462;-75
2023/01/26 07:02:24;;;;;;;1.23;1.15;;;;;;;3.48;74.14;99736.03;4439819;32;34319;-73
2023/01/26 07:04:52;;;;;;;1.40;1.30;;;;;;;3.38;74.31;99742.66;4438288;32;33872;-76
2023/01/26 07:07:20;;;;;;;0.70;0.70;;;;;;;3.27;75.71;99738.97;4439569;32;34904;-71
2023/01/26 07:09:49;;;;;;;1.20;1.20;;;;;;;3.74;72.44;99739.25;4393686;32;33017;-80
2023/01/26 07:12:17;;;;;;;1.67;1.58;;;;;;;3.53;72.73;99738.72;4407628;32;31730;-73
2023/01/26 07:14:45;;;;;;;1.65;1.30;;;;;;;3.38;73.52;99739.22;4404810;32;34135;-69
2023/01/26 07:17:13;;;;;;;1.17;1.17;;;;;;;3.18;74.71;99733.59;4424654;32;35170;-71
2023/01/26 07:19:41;;;;;;;0.85;0.85;;;;;;;3.11;74.82;99729.97;4432756;32;34538;-71
2023/01/26 07:22:09;;;;;;;1.67;1.17;;;;;;;3.30;74.89;99733.00;4440082;32;33400;-78
2023/01/26 07:24:38;;;;;;;0.98;0.80;;;;;;;3.58;72.33;99727.72;4439311;32;33981;-80
2023/01/26 07:27:06;;;;;;;0.70;0.70;;;;;;;3.34;73.18;99727.13;4439522;32;34903;-73
2023/01/26 07:29:34;;;;;;;0.65;0.65;;;;;;;3.42;72.78;99723.00;4439161;32;34400;-84
2023/01/26 07:32:02;;;;;;;7.53;4.68;;;;;;;3.55;71.83;99732.78;4439360;32;33420;-82
2023/01/26 07:34:30;;;;;;;1.25;1.25;;;;;;;3.39;72.58;99733.25;4439261;32;33811;-74
2023/01/26 07:36:58;;;;;;;1.23;0.95;;;;;;;3.54;72.65;99731.03;4439510;32;35740;-75
2023/01/26 07:39:27;;;;;;;2.55;2.35;;;;;;;3.59;72.61;99711.41;4438974;32;34463;-74
2023/01/26 07:41:54;;;;;;;1.30;1.30;;;;;;;3.42;73.42;99720.44;4439552;32;33450;-77
2023/01/26 07:44:23;;;;;;;0.70;0.70;;;;;;;3.16;74.01;99718.09;4425640;32;33824;-78
2023/01/26 07:46:53;;;;;;;1.95;1.80;;;;;;;3.48;72.82;99724.88;4439649;32;35067;-81
2023/01/26 07:49:21;;;;;;;0.95;0.95;;;;;;;3.29;74.23;99721.84;4439425;32;35154;-81
2023/01/26 07:51:51;;;;;;;1.52;1.37;;;;;;;3.53;72.39;99719.00;4412977;32;33611;-86
2023/01/26 07:54:22;;;;;;;1.12;1.12;;;;;;;3.95;70.28;99722.50;4439661;32;34009;-82
2023/01/26 07:56:51;;;;;;;6.90;2.37;;;;;;;3.54;71.53;99728.44;4426125;32;35014;-86
2023/01/26 07:59:20;;;;;;;2.47;1.90;;;;;;;3.61;71.52;99722.59;4439531;32;35155;-85
2023/01/26 08:01:49;;;;;;;1.23;1.17;;;;;;;3.77;71.02;99720.38;4425755;32;33585;-85
2023/01/26 08:04:18;;;;;;;0.90;0.90;;;;;;;3.59;71.19;99721.72;4439488;32;33926;-85
2023/01/26 08:06:46;;;;;;;2.03;1.35;;;;;;;4.13;69.02;99724.59;4439490;32;35735;-72
2023/01/26 08:09:14;;;;;;;9.23;2.78;;;;;;;3.79;69.05;99721.28;4439506;32;35036;-89
2023/01/26 08:11:42;;;;;;;1.23;1.12;;;;;;;3.79;69.41;99722.19;4439478;32;33541;-88
2023/01/26 08:14:10;;;;;;;0.65;0.65;;;;;;;3.59;70.77;99719.13;4425662;32;34658;-77
2023/01/26 08:16:38;;;;;;;0.95;0.95;;;;;;;3.42;70.30;99715.28;4439465;32;36018;-92
2023/01/26 08:19:07;;;;;;;1.40;1.02;;;;;;;3.52;70.54;99724.13;4439369;32;34300;-69
2023/01/26 08:35:52;;;;;;;0.50;0.50;;;;;;;3.59;69.43;99716.56;4964739;28;20601;31
2023/01/26 08:38:22;;;;;;;1.10;1.05;;;;;;;3.98;68.76;99717.44;4259726;33;33771;-71
2023/01/26 08:40:51;;;;;;;1.23;0.95;;;;;;;4.22;67.05;99722.25;4261733;33;35143;-69
2023/01/26 08:43:19;;;;;;;0.70;0.70;;;;;;;3.95;67.50;99718.25;4260598;33;34525;-72
2023/01/26 08:45:48;;;;;;;2.53;2.37;;;;;;;4.07;67.14;99712.47;4261681;33;33327;-76
2023/01/26 08:48:17;;;;;;;0.50;0.50;;;;;;;3.97;67.26;99711.41;4261708;33;33869;-77
2023/01/26 08:50:45;;;;;;;0.93;0.90;;;;;;;4.20;67.55;99713.63;4260516;33;33530;-71
2023/01/26 08:53:14;;;;;;;1.25;1.12;;;;;;;4.14;67.98;99714.34;4260464;33;34377;-76
2023/01/26 08:55:42;;;;;;;0.90;0.90;;;;;;;4.29;66.08;99713.81;4261687;33;34375;-70
2023/01/26 08:58:10;;;;;;;1.45;1.35;;;;;;;3.93;68.15;99714.75;4261535;33;33752;-76
2023/01/26 09:00:38;;;;;;;0.70;0.70;;;;;;;3.75;69.42;99714.34;4248809;33;35056;-77
2023/01/26 09:03:07;;;;;;;2.17;2.08;;;;;;;4.21;67.14;99717.91;4259810;33;34779;-68
2023/01/26 09:05:37;;;;;;;1.37;1.35;;;;;;;3.96;67.81;99717.38;4261451;33;34270;-69
2023/01/26 09:08:07;;;;;;;2.65;2.50;;;;;;;3.97;67.33;99711.41;4261415;33;33913;-71
2023/01/26 09:10:38;;;;;;;0.60;0.60;;;;;;;4.05;67.44;99716.72;4260115;33;35209;-68
2023/01/26 09:13:07;;;;;;;1.65;1.55;;;;;;;3.94;68.71;99719.06;4261139;33;35431;-69
2023/01/26 09:15:36;;;;;;;0.65;0.65;;;;;;;3.75;68.88;99709.19;4261288;33;33420;-68
2023/01/26 09:18:05;;;;;;;0.50;0.50;;;;;;;3.89;68.91;99712.94;4261258;33;33607;-69
2023/01/26 09:20:33;;;;;;;0.70;0.70;;;;;;;3.85;67.72;99716.28;4248262;33;34560;-69
2023/01/26 09:23:03;;;;;;;0.85;0.85;;;;;;;3.71;67.04;99715.12;4248521;33;34028;-68
2023/01/26 09:25:34;;;;;;;1.37;1.17;;;;;;;3.54;68.10;99717.28;4261223;33;33673;-69
2023/01/26 09:28:03;;;;;;;2.00;1.87;;;;;;;4.26;66.54;99711.16;4248390;33;33598;-70
2023/01/26 09:30:32;;;;;;;0.77;0.77;;;;;;;3.76;65.86;99708.38;4260914;33;34956;-68
2023/01/26 09:33:04;;;;;;;0.95;0.95;;;;;;;4.12;65.13;99713.44;4260896;33;35142;-68
2023/01/26 09:35:33;;;;;;;0.70;0.70;;;;;;;3.49;68.18;99712.00;4248119;33;32692;-72
2023/01/26 09:38:02;;;;;;;2.28;2.15;;;;;;;3.98;66.45;99702.81;4236392;33;32262;-69
2023/01/26 09:40:51;;;;;;;0.93;0.93;;;;;;;3.81;68.00;99709.31;4260942;33;35812;-68
2023/01/26 09:43:42;;;;;;;1.30;1.20;;;;;;;4.02;66.47;99708.91;4261253;33;34628;-68
2023/01/26 09:46:19;;;;;;;1.08;1.08;;;;;;;3.94;66.42;99695.87;4250056;33;33398;-68
2023/01/26 09:49:11;;;;;;;0.55;0.55;;;;;;;4.20;65.82;99693.00;4262451;33;33826;-68
2023/01/26 09:52:15;;;;;;;3.10;1.15;;;;;;;3.65;67.33;99696.94;4262388;33;35771;-72
2023/01/26 09:54:48;;;;;;;0.50;0.50;;;;;;;3.85;67.93;99690.53;4249404;33;34248;-77
2023/01/26 09:57:22;;;;;;;1.48;1.37;;;;;;;4.48;64.65;99690.94;4238318;33;32728;-72
2023/01/26 10:00:14;;;;;;;1.10;1.02;;;;;;;3.40;68.63;99686.06;4249995;33;33944;-70
2023/01/26 10:03:13;;;;;;;2.37;2.22;;;;;;;3.54;69.41;99684.69;4249940;33;35131;-70
2023/01/26 10:06:12;;;;;;;1.30;1.30;;;;;;;3.82;68.23;99680.16;4262605;33;34575;-74
2023/01/26 10:09:00;;;;;;;4.37;2.97;;;;;;;3.87;67.54;99669.97;4249710;33;32042;-77
2023/01/26 10:11:37;;;;;;;0.60;0.60;;;;;;;3.66;69.90;99665.22;4261198;33;34672;-77
2023/01/26 10:14:20;;;;;;;1.37;1.27;;;;;;;3.76;68.82;99662.00;4249891;33;35822;-75
2023/01/26 10:16:50;;;;;;;2.15;2.05;;;;;;;4.06;66.53;99663.47;4261477;33;34407;-72
2023/01/26 10:19:43;;;;;;;1.87;1.77;;;;;;;4.17;65.85;99656.84;4261438;33;33431;-77
2023/01/26 10:22:25;;;;;;;1.48;1.37;;;;;;;4.25;65.66;99647.53;4238268;33;33841;-77
2023/01/26 10:24:55;;;;;;;0.62;0.62;;;;;;;4.35;66.28;99646.03;4249949;33;35865;-77
2023/01/26 10:27:23;;;;;;;0.55;0.55;;;;;;;4.28;65.17;99645.03;4262866;33;34576;-77
2023/01/26 10:29:51;;;;;;;0.50;0.50;;;;;;;4.47;64.88;99646.25;4249728;33;33408;-74
2023/01/26 10:32:20;;;;;;;0.60;0.60;;;;;;;4.51;65.08;99635.16;4262562;33;34027;-70
2023/01/26 10:34:50;;;;;;;0.95;0.95;;;;;;;4.64;64.87;99633.69;4262324;33;34913;-75
2023/01/26 10:37:21;;;;;;;0.82;0.82;;;;;;;4.84;64.37;99620.25;4262299;33;34259;-77
2023/01/26 10:40:06;;;;;;;3.42;3.22;;;;;;;4.59;65.40;99619.84;4238347;33;33011;-72
2023/01/26 10:42:36;;;;;;;1.27;1.27;;;;;;;4.60;64.12;99623.28;4238129;33;33783;-71
2023/01/26 10:45:24;;;;;;;0.65;0.65;;;;;;;4.77;63.24;99621.00;4249712;33;35816;-76
2023/01/26 10:48:17;;;;;;;0.50;0.50;;;;;;;4.72;62.80;99618.31;4262332;33;34414;-76
2023/01/26 10:50:47;;;;;;;1.75;1.65;;;;;;;4.57;63.04;99616.34;4261358;33;33361;-75
2023/01/26 10:53:19;;;;;;;0.70;0.70;;;;;;;4.65;63.54;99614.75;4261035;33;33774;-73
2023/01/26 10:56:01;;;;;;;1.55;1.30;;;;;;;4.72;62.38;99616.59;4249670;33;35791;-78
2023/01/26 10:58:58;;;;;;;1.17;1.15;;;;;;;4.39;64.23;99610.84;4249407;33;33160;-74
2023/01/26 11:01:27;;;;;;;1.70;1.60;;;;;;;4.55;63.67;99616.31;4249722;33;33382;-76
2023/01/26 11:04:13;;;;;;;1.90;1.77;;;;;;;4.77;63.07;99610.69;4260480;33;33808;-73
2023/01/26 11:06:42;;;;;;;0.70;0.70;;;;;;;4.84;63.07;99607.34;4249207;33;34376;-74
2023/01/26 11:09:13;;;;;;;0.50;0.50;;;;;;;4.53;64.31;99599.06;4260659;33;34311;-73
2023/01/26 11:11:54;;;;;;;2.12;1.95;;;;;;;4.60;63.79;99595.75;4262182;33;34150;-72
2023/01/26 11:14:23;;;;;;;1.30;1.30;;;;;;;4.28;67.24;99600.34;4249683;33;34047;-77
2023/01/26 11:17:32;;;;;;;2.28;2.08;;;;;;;4.40;65.19;99597.13;4260997;33;35903;-70
2023/01/26 11:20:34;;;;;;;1.12;1.02;;;;;;;4.37;65.56;99597.94;4192470;34;33104;-72
2023/01/26 11:23:14;;;;;;;1.33;1.30;;;;;;;3.75;68.83;99590.72;4192250;34;34060;-73
2023/01/26 11:26:05;;;;;;;2.70;2.50;;;;;;;3.86;68.16;99583.19;4239140;33;32918;-73
2023/01/26 11:28:53;;;;;;;1.40;1.35;;;;;;;4.49;64.43;99579.25;4249104;33;35861;-71
2023/01/26 11:31:30;;;;;;;1.05;1.05;;;;;;;4.20;65.19;99578.69;4248897;33;34204;-72
2023/01/26 11:34:10;;;;;;;0.82;0.82;;;;;;;4.74;63.52;99573.63;4248823;33;32789;-74
2023/01/26 11:36:54;;;;;;;6.32;2.90;;;;;;;4.68;63.58;99572.69;4248775;33;33728;-74
2023/01/26 11:39:27;;;;;;;1.05;1.05;;;;;;;4.61;63.54;99574.28;4261039;33;35990;-69
2023/01/26 11:42:14;;;;;;;1.12;1.10;;;;;;;4.62;63.67;99578.59;4249515;33;34747;-69
2023/01/26 11:45:11;;;;;;;2.35;2.15;;;;;;;4.50;64.34;99570.66;4260954;33;33453;-75
2023/01/26 11:47:53;;;;;;;0.77;0.77;;;;;;;4.30;64.65;99558.28;4262051;33;34792;-69
2023/01/26 11:50:44;;;;;;;0.65;0.65;;;;;;;4.22;64.13;99561.56;4260965;33;35356;-70
2023/01/26 11:53:31;;;;;;;4.35;1.85;;;;;;;4.16;64.96;99552.00;4262034;33;34271;-78
2023/01/26 11:56:08;;;;;;;1.25;1.17;;;;;;;3.89;66.14;99548.06;4262267;33;33614;-77
2023/01/26 11:58:36;;;;;;;1.00;1.00;;;;;;;4.30;64.85;99547.97;4262148;33;33796;-78
2023/01/26 12:01:14;;;;;;;3.17;2.62;;;;;;;4.18;65.01;99542.59;4261803;33;35899;-76
2023/01/26 12:03:45;;;;;;;25.77;13.85;;;;;;;3.90;66.48;99534.38;4249320;33;35271;-70
2023/01/26 12:06:44;;;;;;;3.40;2.17;;;;;;;4.14;66.89;99527.91;4248113;33;33659;-77
2023/01/26 12:09:35;;;;;;;1.50;1.40;;;;;;;4.15;65.54;99527.94;4249359;33;33991;-76
2023/01/26 12:12:21;;;;;;;6.65;1.87;;;;;;;4.26;65.45;99520.41;4249266;33;35079;-77
2023/01/26 12:14:50;;;;;;;0.62;0.62;;;;;;;4.20;65.23;99515.16;4249261;33;34717;-78
2023/01/26 12:17:22;;;;;;;0.98;0.98;;;;;;;4.14;64.88;99515.03;4249385;33;32513;-78
2023/01/26 12:20:26;;;;;;;0.62;0.62;;;;;;;4.05;64.93;99509.72;4261851;33;34727;-70
2023/01/26 12:23:08;;;;;;;1.62;1.52;;;;;;;4.14;65.74;99508.16;4249198;33;34234;-78
2023/01/26 12:25:39;;;;;;;3.45;3.25;;;;;;;3.98;66.08;99514.75;4261961;33;35170;-78
2023/01/26 12:28:24;;;;;;;0.60;0.60;;;;;;;4.31;65.01;99511.03;4262055;33;32612;-78
2023/01/26 12:31:20;;;;;;;2.90;1.55;;;;;;;4.56;63.94;99509.72;4249199;33;34028;-70
2023/01/26 12:33:51;;;;;;;1.92;1.83;;;;;;;3.53;67.85;99507.88;4248951;33;35161;-78
2023/01/26 12:36:45;;;;;;;1.05;1.05;;;;;;;3.97;66.35;99510.44;4261783;33;34331;-75
2023/01/26 12:39:22;;;;;;;1.62;1.52;;;;;;;4.27;64.50;99506.69;4233587;33;33402;-78
2023/01/26 12:42:21;;;;;;;3.95;2.58;;;;;;;4.34;63.71;99500.78;4232407;33;34583;-73
2023/01/26 12:44:59;;;;;;;1.02;1.02;;;;;;;3.92;66.30;99495.75;4233564;33;35116;-78
2023/01/26 12:47:50;;;;;;;0.60;0.60;;;;;;;4.13;66.27;99490.97;4232430;33;34711;-70
2023/01/26 12:50:42;;;;;;;2.90;2.70;;;;;;;4.24;64.42;99496.31;4233534;33;33619;-71
2023/01/26 12:53:47;;;;;;;0.77;0.77;;;;;;;4.45;63.97;99498.37;4233562;33;33714;-73
2023/01/26 12:56:35;;;;;;;2.03;1.58;;;;;;;4.26;64.39;99486.03;4230810;33;34950;-79
2023/01/26 12:59:31;;;;;;;1.25;1.02;;;;;;;4.37;64.46;99490.50;4233381;33;34383;-79
2023/01/26 13:02:15;;;;;;;1.27;1.17;;;;;;;4.41;64.06;99486.28;4233382;33;33395;-78
2023/01/26 13:04:44;;;;;;;1.40;1.40;;;;;;;4.18;65.81;99488.47;4233319;33;34756;-78
2023/01/26 13:07:31;;;;;;;1.60;1.50;;;;;;;4.07;66.10;99484.84;4233570;33;35060;-79
2023/01/26 13:10:22;;;;;;;0.50;0.50;;;;;;;4.10;65.95;99484.91;4232200;33;34515;-70
2023/01/26 13:12:56;;;;;;;0.60;0.60;;;;;;;4.14;64.24;99474.66;4232191;33;33404;-78